createdAt,value
2022-12-04T00:01:29.692Z,63.52
2022-12-04T00:04:00.094Z,63.96
2022-12-04T00:06:29.329Z,64.15
2022-12-04T00:08:58.144Z,64.44
2022-12-04T00:11:30.696Z,64.21
2022-12-04T00:14:06.206Z,63.67
2022-12-04T00:16:35.549Z,63.30
2022-12-04T00:19:04.134Z,63.76
2022-12-04T00:21:32.180Z,63.48
2022-12-04T00:24:00.536Z,63.47
2022-12-04T00:26:31.141Z,63.70
2022-12-04T00:28:59.166Z,63.48
2022-12-04T00:31:29.716Z,63.56
2022-12-04T00:33:58.555Z,63.93
2022-12-04T00:36:29.366Z,63.96
2022-12-04T00:38:57.539Z,63.30
2022-12-04T00:41:27.929Z,63.94
2022-12-04T00:43:57.462Z,63.35
2022-12-04T00:46:25.666Z,64.32
2022-12-04T00:48:53.882Z,64.20
2022-12-04T00:51:25.105Z,64.50
2022-12-04T00:53:53.798Z,64.67
2022-12-04T00:56:24.563Z,64.52
2022-12-04T00:58:54.076Z,64.72
2022-12-04T01:01:24.840Z,64.29
2022-12-04T01:03:54.311Z,64.58
2022-12-04T01:06:24.297Z,64.52
2022-12-04T01:08:54.933Z,65.34
2022-12-04T01:11:31.086Z,64.89
2022-12-04T01:14:00.569Z,64.62
2022-12-04T01:16:32.373Z,65.20
2022-12-04T01:19:03.075Z,64.88
2022-12-04T01:21:31.207Z,64.92
2022-12-04T01:24:00.499Z,65.15
2022-12-04T01:26:30.009Z,65.35
2022-12-04T01:28:58.266Z,65.40
2022-12-04T01:31:27.485Z,65.95
2022-12-04T01:33:57.230Z,66.27
2022-12-04T01:36:30.687Z,66.49
2022-12-04T01:39:00.499Z,65.43
2022-12-04T01:44:34.349Z,66.14
2022-12-04T01:47:14.600Z,65.51
2022-12-04T01:49:47.693Z,66.24
2022-12-04T01:59:24.832Z,66.18
2022-12-04T02:01:59.319Z,65.84
2022-12-04T02:14:27.862Z,65.63
2022-12-04T02:17:04.127Z,65.38
2022-12-04T02:19:52.227Z,65.98
2022-12-04T02:22:35.159Z,65.21
2022-12-04T02:25:14.915Z,65.53
2022-12-04T02:28:02.340Z,66.49
2022-12-04T02:30:32.410Z,66.00
2022-12-04T02:33:06.008Z,65.87
2022-12-04T02:35:38.624Z,65.95
2022-12-04T02:38:14.129Z,66.21
2022-12-04T02:40:52.617Z,66.97
2022-12-04T02:43:29.315Z,67.67
2022-12-04T02:46:02.497Z,66.55
2022-12-04T02:48:34.009Z,66.76
2022-12-04T02:51:04.710Z,66.55
2022-12-04T02:53:39.846Z,66.54
2022-12-04T02:56:09.424Z,66.81
2022-12-04T02:58:43.478Z,66.26
2022-12-04T03:01:20.538Z,66.67
2022-12-04T03:03:54.841Z,66.20
2022-12-04T03:06:25.112Z,65.97
2022-12-04T03:08:59.746Z,66.48
2022-12-04T03:11:32.267Z,67.25
2022-12-04T03:14:08.068Z,66.19
2022-12-04T03:16:40.706Z,66.62
2022-12-04T03:19:11.970Z,66.69
2022-12-04T03:21:47.610Z,66.39
2022-12-04T03:24:21.424Z,66.65
2022-12-04T03:26:53.253Z,66.85
2022-12-04T03:29:24.812Z,66.93
2022-12-04T03:31:58.869Z,66.50
2022-12-04T03:34:34.408Z,67.18
2022-12-04T03:37:09.238Z,67.16
2022-12-04T03:39:43.056Z,66.47
2022-12-04T03:42:17.687Z,66.14
2022-12-04T03:44:50.732Z,66.71
2022-12-04T03:47:21.978Z,66.91
2022-12-04T03:49:54.071Z,66.64
2022-12-04T03:52:25.930Z,66.31
2022-12-04T03:54:59.685Z,65.76
2022-12-04T03:57:32.173Z,65.62
2022-12-04T04:00:06.848Z,65.96
2022-12-04T04:02:37.791Z,65.40
2022-12-04T04:05:10.359Z,65.51
2022-12-04T04:07:43.636Z,65.41
2022-12-04T04:10:15.805Z,65.44
2022-12-04T04:13:10.623Z,64.91
2022-12-04T04:16:03.507Z,65.56
2022-12-04T04:18:51.006Z,65.20
2022-12-04T04:21:40.495Z,65.37
2022-12-04T04:24:15.644Z,65.27
2022-12-04T04:26:45.162Z,65.32
2022-12-04T04:29:13.465Z,64.88
2022-12-04T04:31:49.925Z,64.74
2022-12-04T04:34:23.352Z,65.25
2022-12-04T04:36:57.417Z,64.86
2022-12-04T04:39:32.717Z,65.02
2022-12-04T04:42:08.251Z,64.93
2022-12-04T04:44:46.178Z,65.07
2022-12-04T04:47:21.842Z,64.68
2022-12-04T04:49:53.313Z,64.43
2022-12-04T04:52:25.248Z,64.78
2022-12-04T04:54:53.194Z,64.56
2022-12-04T04:57:29.249Z,64.51
2022-12-04T04:59:57.471Z,65.40
2022-12-04T05:02:28.604Z,64.98
2022-12-04T05:04:56.802Z,65.15
2022-12-04T05:07:24.623Z,65.05
2022-12-04T05:09:53.048Z,65.69
2022-12-04T05:12:23.700Z,64.68
2022-12-04T05:14:52.250Z,64.96
2022-12-04T05:17:20.329Z,64.50
2022-12-04T05:19:55.829Z,65.71
2022-12-04T05:22:26.376Z,65.56
2022-12-04T05:24:55.234Z,65.08
2022-12-04T05:27:24.149Z,64.67
2022-12-04T05:29:53.946Z,64.62
2022-12-04T05:32:22.827Z,65.20
2022-12-04T05:34:54.023Z,64.86
2022-12-04T05:37:21.884Z,65.71
2022-12-04T05:39:49.806Z,65.64
2022-12-04T05:42:18.338Z,65.64
2022-12-04T05:44:46.135Z,65.17
2022-12-04T05:47:13.854Z,66.07
2022-12-04T05:49:42.187Z,66.86
2022-12-04T05:52:11.649Z,66.38
2022-12-04T05:54:40.589Z,65.80
2022-12-04T05:57:08.405Z,65.70
2022-12-04T05:59:36.567Z,65.21
2022-12-04T06:02:04.529Z,65.79
2022-12-04T06:04:32.749Z,65.79
2022-12-04T06:07:00.465Z,65.53
2022-12-04T06:09:30.095Z,65.25
2022-12-04T06:11:59.137Z,65.54
2022-12-04T06:14:27.689Z,65.37
2022-12-04T06:16:55.493Z,65.65
2022-12-04T06:19:24.691Z,64.91
2022-12-04T06:21:54.397Z,65.52
2022-12-04T06:24:24.903Z,65.43
2022-12-04T06:27:26.128Z,65.18
2022-12-04T06:29:46.062Z,64.83
2022-12-04T06:32:19.683Z,64.61
2022-12-04T06:34:53.149Z,64.57
2022-12-04T06:37:21.528Z,65.06
2022-12-04T06:39:49.914Z,64.89
2022-12-04T06:42:19.591Z,64.37
2022-12-04T06:44:47.905Z,64.58
2022-12-04T06:47:15.637Z,64.98
2022-12-04T06:49:44.044Z,65.75
2022-12-04T06:52:26.425Z,65.33
2022-12-04T06:54:54.823Z,65.30
2022-12-04T06:57:24.260Z,64.65
2022-12-04T06:59:52.103Z,65.24
2022-12-04T07:02:20.643Z,65.16
2022-12-04T07:04:48.613Z,65.17
2022-12-04T07:07:16.951Z,65.53
2022-12-04T07:09:46.816Z,64.56
2022-12-04T07:12:15.372Z,64.67
2022-12-04T07:14:45.241Z,64.84
2022-12-04T07:17:13.268Z,64.87
2022-12-04T07:19:41.813Z,64.42
2022-12-04T07:22:09.897Z,64.94
2022-12-04T07:24:38.867Z,64.57
2022-12-04T07:27:06.645Z,64.07
2022-12-04T07:29:34.936Z,64.25
2022-12-04T07:32:04.518Z,64.17
2022-12-04T07:34:32.526Z,64.81
2022-12-04T07:37:01.538Z,64.89
2022-12-04T07:39:30.028Z,65.26
2022-12-04T07:41:58.809Z,65.12
2022-12-04T07:44:27.495Z,64.83
2022-12-04T07:46:55.923Z,64.15
2022-12-04T07:49:25.727Z,64.38
2022-12-04T07:51:55.364Z,63.96
2022-12-04T07:54:24.001Z,64.02
2022-12-04T07:56:52.593Z,64.04
2022-12-04T07:59:21.039Z,64.65
2022-12-04T08:01:50.581Z,64.44
2022-12-04T08:04:19.169Z,63.94
2022-12-04T08:06:50.299Z,63.94
2022-12-04T08:09:19.400Z,64.48
2022-12-04T08:11:48.118Z,64.11
2022-12-04T08:14:25.779Z,64.52
2022-12-04T08:16:55.153Z,63.90
2022-12-04T08:19:24.611Z,64.06
2022-12-04T08:21:57.332Z,64.56
2022-12-04T08:24:26.464Z,64.75
2022-12-04T08:27:11.750Z,63.87
2022-12-04T08:29:47.427Z,64.41
2022-12-04T08:32:34.605Z,64.47
2022-12-04T08:35:38.638Z,63.72
2022-12-04T08:48:17.256Z,63.92
2022-12-04T08:50:56.768Z,63.15
2022-12-04T08:53:43.537Z,63.56
2022-12-04T08:56:16.299Z,63.55
2022-12-04T08:58:50.300Z,63.88
2022-12-04T09:01:25.170Z,64.23
2022-12-04T09:04:07.019Z,63.37
2022-12-04T09:06:38.416Z,64.03
2022-12-04T09:09:20.174Z,63.81
2022-12-04T09:12:04.505Z,64.48
2022-12-04T09:14:38.357Z,63.90
2022-12-04T09:17:15.207Z,63.53
2022-12-04T09:23:02.420Z,63.48
2022-12-04T09:25:35.978Z,63.70
2022-12-04T09:28:16.441Z,64.12
2022-12-04T09:30:54.972Z,63.89
2022-12-04T09:33:34.171Z,63.11
2022-12-04T09:36:10.742Z,63.22
2022-12-04T09:42:05.543Z,63.68
2022-12-04T09:44:59.089Z,63.37
2022-12-04T09:47:40.320Z,62.89
2022-12-04T09:50:24.374Z,63.43
2022-12-04T09:53:06.516Z,63.74
2022-12-04T09:55:47.038Z,62.92
2022-12-04T09:58:25.649Z,63.61
2022-12-04T10:01:10.504Z,63.29
2022-12-04T10:03:45.142Z,63.18
2022-12-04T10:06:22.638Z,62.69
2022-12-04T10:09:10.255Z,62.64
2022-12-04T10:11:53.284Z,61.48
2022-12-04T10:14:57.513Z,62.45
2022-12-04T10:18:05.771Z,62.86
2022-12-04T10:21:01.739Z,62.91
2022-12-04T10:23:42.522Z,63.25
2022-12-04T10:26:21.717Z,62.58
2022-12-04T10:29:06.513Z,62.61
2022-12-04T10:31:50.652Z,62.45
2022-12-04T10:34:31.577Z,62.70
2022-12-04T10:37:16.910Z,62.36
2022-12-04T10:40:00.850Z,62.83
2022-12-04T10:42:40.295Z,62.12
2022-12-04T10:45:16.548Z,62.22
2022-12-04T10:47:53.324Z,62.04
2022-12-04T10:50:34.500Z,61.49
2022-12-04T10:53:13.737Z,61.42
2022-12-04T10:55:50.106Z,61.55
2022-12-04T10:58:25.040Z,62.44
2022-12-04T11:01:13.791Z,62.32
2022-12-04T11:04:08.541Z,61.84
2022-12-04T11:06:44.953Z,62.01
2022-12-04T11:09:32.481Z,61.71
2022-12-04T11:15:17.059Z,61.53
2022-12-04T11:18:16.453Z,61.60
2022-12-04T11:21:03.898Z,61.55
2022-12-04T11:30:03.953Z,60.38
2022-12-04T11:32:55.114Z,61.22
2022-12-04T11:35:47.143Z,61.05
2022-12-04T11:38:46.843Z,60.42
2022-12-04T11:41:55.335Z,60.86
2022-12-04T11:56:38.534Z,60.28
2022-12-04T11:59:52.900Z,60.65
2022-12-04T12:03:04.336Z,60.67
2022-12-04T12:09:19.981Z,60.56
2022-12-04T12:12:17.879Z,60.14
2022-12-04T12:15:21.685Z,61.33
2022-12-04T12:18:34.129Z,60.54
2022-12-04T12:21:48.610Z,61.16
2022-12-04T12:24:51.552Z,59.96
2022-12-04T12:28:00.407Z,60.54
2022-12-04T12:31:20.735Z,61.04
2022-12-04T12:37:12.916Z,61.03
2022-12-04T12:43:22.441Z,60.53
2022-12-04T12:46:51.002Z,60.13
2022-12-04T13:12:08.435Z,59.91
2022-12-04T13:38:25.532Z,59.54
2022-12-04T13:41:19.217Z,58.99
2022-12-04T13:44:44.933Z,58.96
2022-12-04T13:50:42.624Z,58.78
2022-12-04T13:53:54.286Z,60.19
2022-12-04T13:56:48.003Z,59.01
2022-12-04T13:59:43.352Z,59.87
2022-12-04T14:02:49.033Z,59.82
2022-12-04T14:05:40.468Z,59.34
2022-12-04T14:08:50.997Z,60.27
2022-12-04T14:11:37.741Z,59.39
2022-12-04T14:14:43.234Z,58.98
2022-12-04T14:17:35.000Z,60.55
2022-12-04T14:20:11.876Z,59.28
2022-12-04T14:22:45.779Z,64.69
2022-12-04T14:25:42.000Z,60.94
2022-12-04T14:28:42.034Z,60.08
2022-12-04T14:31:28.367Z,59.81
2022-12-04T14:34:12.440Z,59.87
2022-12-04T14:36:55.981Z,59.62
2022-12-04T14:39:35.746Z,59.67
2022-12-04T14:42:33.314Z,59.57
2022-12-04T14:45:23.867Z,59.83
2022-12-04T14:48:14.514Z,60.31
2022-12-04T14:51:03.167Z,59.27
2022-12-04T14:53:47.319Z,59.71
2022-12-04T14:56:45.246Z,60.03
2022-12-04T14:59:24.723Z,60.03
2022-12-04T15:02:12.772Z,59.79
2022-12-04T15:04:47.548Z,60.39
2022-12-04T15:07:38.321Z,60.81
2022-12-04T15:10:38.760Z,59.53
2022-12-04T15:13:18.590Z,60.26
2022-12-04T15:15:50.141Z,60.70
2022-12-04T15:18:19.164Z,60.16
2022-12-04T15:20:58.911Z,60.71
2022-12-04T15:23:32.581Z,59.91
2022-12-04T15:26:03.859Z,61.11
2022-12-04T15:28:37.518Z,60.80
2022-12-04T15:31:12.008Z,60.47
2022-12-04T15:33:41.939Z,60.47
2022-12-04T15:36:16.085Z,60.78
2022-12-04T15:38:46.484Z,60.89
2022-12-04T15:41:35.856Z,62.58
2022-12-04T15:44:05.133Z,61.40
2022-12-04T15:46:35.303Z,61.19
2022-12-04T15:49:09.139Z,61.13
2022-12-04T15:51:37.404Z,61.87
2022-12-04T15:54:17.361Z,61.57
2022-12-04T15:56:45.502Z,61.65
2022-12-04T15:59:19.379Z,61.79
2022-12-04T16:01:47.643Z,62.14
2022-12-04T16:04:23.694Z,62.47
2022-12-04T16:06:53.836Z,62.22
2022-12-04T16:09:26.140Z,62.14
2022-12-04T16:12:02.329Z,61.64
2022-12-04T16:14:31.202Z,61.50
2022-12-04T16:17:06.395Z,61.63
2022-12-04T16:19:37.591Z,61.39
2022-12-04T16:22:12.922Z,61.76
2022-12-04T16:24:43.687Z,60.66
2022-12-04T16:27:14.033Z,61.36
2022-12-04T16:29:42.687Z,61.37
2022-12-04T16:32:12.814Z,61.73
2022-12-04T16:34:41.212Z,61.78
2022-12-04T16:37:14.435Z,61.01
2022-12-04T16:39:44.642Z,61.29
2022-12-04T16:42:18.015Z,61.56
2022-12-04T16:44:47.072Z,61.11
2022-12-04T16:47:16.549Z,61.25
2022-12-04T16:49:46.152Z,61.23
2022-12-04T16:52:15.457Z,61.38
2022-12-04T16:54:45.030Z,61.90
2022-12-04T16:57:13.731Z,61.14
2022-12-04T16:59:43.057Z,60.81
2022-12-04T17:02:19.332Z,61.16
2022-12-04T17:04:51.449Z,61.32
2022-12-04T17:07:23.001Z,61.02
2022-12-04T17:09:53.512Z,61.12
2022-12-04T17:12:21.637Z,60.97
2022-12-04T17:14:50.237Z,61.11
2022-12-04T17:17:18.669Z,60.25
2022-12-04T17:19:47.988Z,60.99
2022-12-04T17:22:17.127Z,60.38
2022-12-04T17:24:55.744Z,61.14
2022-12-04T17:27:26.776Z,61.16
2022-12-04T17:29:55.177Z,61.67
2022-12-04T17:32:23.512Z,61.52
2022-12-04T17:34:54.404Z,60.76
2022-12-04T17:37:23.512Z,60.89
2022-12-04T17:39:51.838Z,61.68
2022-12-04T17:42:20.834Z,60.83
2022-12-04T17:44:50.522Z,60.84
2022-12-04T17:47:19.043Z,61.47
2022-12-04T17:49:47.505Z,61.29
2022-12-04T17:52:16.288Z,60.85
2022-12-04T17:54:44.367Z,60.43
2022-12-04T17:57:12.681Z,60.90
2022-12-04T17:59:41.451Z,60.27
2022-12-04T18:02:12.138Z,60.46
2022-12-04T18:04:40.573Z,60.31
2022-12-04T18:07:09.441Z,60.85
2022-12-04T18:09:37.858Z,61.35
2022-12-04T18:12:06.532Z,61.22
2022-12-04T18:14:35.278Z,61.36
2022-12-04T18:17:04.428Z,60.60
2022-12-04T18:19:34.319Z,60.84
2022-12-04T18:22:02.269Z,61.18
2022-12-04T18:24:30.878Z,61.12
2022-12-04T18:26:58.733Z,61.32
2022-12-04T18:29:28.592Z,61.77
2022-12-04T18:31:56.709Z,61.85
2022-12-04T18:34:25.222Z,61.46
2022-12-04T18:36:54.504Z,61.86
2022-12-04T18:39:24.586Z,61.73
2022-12-04T18:41:55.223Z,61.25
2022-12-04T18:44:23.658Z,61.96
2022-12-04T18:46:51.574Z,61.75
2022-12-04T18:49:20.321Z,62.12
2022-12-04T18:51:50.222Z,61.82
2022-12-04T18:54:22.412Z,62.22
2022-12-04T18:56:50.994Z,62.04
2022-12-04T18:59:21.044Z,62.38
2022-12-04T19:01:50.265Z,61.61
2022-12-04T19:04:19.913Z,61.80
2022-12-04T19:06:50.185Z,61.23
2022-12-04T19:09:35.486Z,61.80
2022-12-04T19:12:10.788Z,61.96
2022-12-04T19:14:39.985Z,61.68
2022-12-04T19:17:08.235Z,62.32
2022-12-04T19:19:36.445Z,62.41
2022-12-04T19:22:04.616Z,62.71
2022-12-04T19:24:34.272Z,62.83
2022-12-04T19:27:10.041Z,62.20
2022-12-04T19:29:38.307Z,62.73
2022-12-04T19:32:06.554Z,62.95
2022-12-04T19:34:34.633Z,62.75
2022-12-04T19:37:03.255Z,63.76
2022-12-04T19:39:31.183Z,63.23
2022-12-04T19:42:00.587Z,63.68
2022-12-04T19:47:16.753Z,63.62
2022-12-04T19:49:44.866Z,63.16
2022-12-04T19:52:12.931Z,64.14
2022-12-04T19:54:40.900Z,63.63
2022-12-04T19:57:10.557Z,64.03
2022-12-04T19:59:43.059Z,64.56
2022-12-04T20:02:14.012Z,63.91
2022-12-04T20:04:43.241Z,64.35
2022-12-04T20:07:11.581Z,64.40
2022-12-04T20:09:39.561Z,64.59
2022-12-04T20:12:08.044Z,64.54
2022-12-04T20:14:37.472Z,65.00
2022-12-04T20:17:05.586Z,65.00
2022-12-04T20:19:33.643Z,64.79
2022-12-04T20:22:01.721Z,65.06
2022-12-04T20:24:29.628Z,64.67
2022-12-04T20:26:57.936Z,65.26
2022-12-04T20:29:26.092Z,65.86
2022-12-04T20:31:55.627Z,65.57
2022-12-04T20:34:23.909Z,65.04
2022-12-04T20:36:52.116Z,65.65
2022-12-04T20:39:21.511Z,64.95
2022-12-04T20:41:49.817Z,65.75
2022-12-04T20:44:20.259Z,65.75
2022-12-04T20:46:48.854Z,65.79
2022-12-04T20:49:22.666Z,65.97
2022-12-04T20:51:52.543Z,66.52
2022-12-04T20:54:22.843Z,67.03
2022-12-04T20:56:53.350Z,67.19
2022-12-04T20:59:23.257Z,67.52
2022-12-04T21:01:52.696Z,67.35
2022-12-04T21:04:22.592Z,67.05
2022-12-04T21:06:50.541Z,67.56
2022-12-04T21:09:21.031Z,67.44
2022-12-04T21:11:50.974Z,67.21
2022-12-04T21:14:38.261Z,67.71
2022-12-04T21:17:09.678Z,67.50
2022-12-04T21:19:39.529Z,67.91
2022-12-04T21:22:07.689Z,67.90
2022-12-04T21:24:38.793Z,67.77
2022-12-04T21:27:08.043Z,68.37
2022-12-04T21:29:36.834Z,67.99
2022-12-04T21:32:05.546Z,68.35
2022-12-04T21:34:34.370Z,68.77
2022-12-04T21:37:03.753Z,68.93
2022-12-04T21:39:32.343Z,69.44
2022-12-04T21:42:17.461Z,70.16
2022-12-04T21:44:45.895Z,69.36
2022-12-04T21:47:14.073Z,68.99
2022-12-04T21:49:41.985Z,68.70
2022-12-04T21:52:12.043Z,69.67
2022-12-04T21:54:40.089Z,69.79
2022-12-04T21:57:08.599Z,69.43
2022-12-04T21:59:36.583Z,69.71
2022-12-04T22:02:04.678Z,69.63
2022-12-04T22:04:33.131Z,69.06
2022-12-04T22:07:01.176Z,68.44
2022-12-04T22:09:31.071Z,68.56
2022-12-04T22:11:59.004Z,68.90
2022-12-04T22:14:27.553Z,68.55
2022-12-04T22:16:55.747Z,69.01
2022-12-04T22:19:23.819Z,68.41
2022-12-04T22:21:52.092Z,69.22
2022-12-04T22:24:20.037Z,68.73
2022-12-04T22:26:50.055Z,68.74
2022-12-04T22:29:48.424Z,68.26
2022-12-04T22:32:06.399Z,68.29
2022-12-04T22:34:34.601Z,68.82
2022-12-04T22:37:03.054Z,68.63
2022-12-04T22:39:33.589Z,68.87
2022-12-04T22:42:03.494Z,68.55
2022-12-04T22:44:31.541Z,69.12
2022-12-04T22:46:59.544Z,69.41
2022-12-04T22:49:28.007Z,69.54
2022-12-04T22:51:56.139Z,69.91
2022-12-04T22:54:24.653Z,69.85
2022-12-04T22:56:52.750Z,69.39
2022-12-04T22:59:22.810Z,69.95
2022-12-04T23:01:50.982Z,69.55
2022-12-04T23:04:19.430Z,69.78
2022-12-04T23:06:47.535Z,69.81
2022-12-04T23:09:18.014Z,70.18
2022-12-04T23:11:46.373Z,70.10
2022-12-04T23:14:16.667Z,70.35
2022-12-04T23:16:46.280Z,70.26
2022-12-04T23:19:20.675Z,70.64
2022-12-04T23:21:55.161Z,70.46
2022-12-04T23:24:25.458Z,71.09
2022-12-04T23:26:54.237Z,71.96
2022-12-04T23:29:51.499Z,70.50
2022-12-04T23:32:12.525Z,70.72
2022-12-04T23:34:41.351Z,71.21
2022-12-04T23:37:09.384Z,70.99
2022-12-04T23:39:37.783Z,70.66
2022-12-04T23:42:05.795Z,70.75
2022-12-04T23:44:34.330Z,70.56
2022-12-04T23:47:02.424Z,71.19
2022-12-04T23:49:32.386Z,70.86
2022-12-04T23:52:00.553Z,70.89
2022-12-04T23:54:35.343Z,70.79
2022-12-04T23:57:03.579Z,70.31
2022-12-04T23:59:31.494Z,70.71
